sensor_id;sensor_type;location;lat;lon;timestamp;pressure;altitude;pressure_sealevel;temperature;humidity
61870;BME280;47810;42.264;23.826;2022-09-30T00:01:20;93548.81;;;14.20;72.58
61870;BME280;47810;42.264;23.826;2022-09-30T00:03:46;93541.75;;;14.31;72.99
61870;BME280;47810;42.264;23.826;2022-09-30T00:06:14;93554.75;;;14.34;72.90
61870;BME280;47810;42.264;23.826;2022-09-30T00:08:40;93557.88;;;13.97;73.15
61870;BME280;47810;42.264;23.826;2022-09-30T00:11:14;93556.75;;;13.99;72.97
61870;BME280;47810;42.264;23.826;2022-09-30T00:13:42;93559.03;;;14.04;72.55
61870;BME280;47810;42.264;23.826;2022-09-30T00:16:10;93562.84;;;14.11;72.32
61870;BME280;47810;42.264;23.826;2022-09-30T00:18:36;93556.38;;;14.04;73.05
61870;BME280;47810;42.264;23.826;2022-09-30T00:21:03;93565.75;;;14.08;73.33
61870;BME280;47810;42.264;23.826;2022-09-30T00:23:29;93569.53;;;14.27;72.53
61870;BME280;47810;42.264;23.826;2022-09-30T00:25:59;93573.78;;;13.97;73.13
61870;BME280;47810;42.264;23.826;2022-09-30T00:28:26;93569.66;;;14.04;73.21
61870;BME280;47810;42.264;23.826;2022-09-30T00:30:53;93572.09;;;13.96;73.41
61870;BME280;47810;42.264;23.826;2022-09-30T00:33:19;93574.31;;;13.91;73.42
61870;BME280;47810;42.264;23.826;2022-09-30T00:35:45;93569.47;;;14.17;72.67
61870;BME280;47810;42.264;23.826;2022-09-30T00:38:11;93577.72;;;13.82;73.07
61870;BME280;47810;42.264;23.826;2022-09-30T00:40:37;93578.44;;;13.84;73.69
61870;BME280;47810;42.264;23.826;2022-09-30T00:43:15;93575.53;;;13.87;73.54
61870;BME280;47810;42.264;23.826;2022-09-30T00:45:55;93574.81;;;13.85;73.35
61870;BME280;47810;42.264;23.826;2022-09-30T00:48:30;93578.19;;;13.87;73.24
61870;BME280;47810;42.264;23.826;2022-09-30T00:50:58;93572.09;;;13.96;73.00
61870;BME280;47810;42.264;23.826;2022-09-30T00:53:32;93573.22;;;13.93;72.59
61870;BME280;47810;42.264;23.826;2022-09-30T00:56:12;93580.91;;;13.96;71.93
61870;BME280;47810;42.264;23.826;2022-09-30T00:58:45;93571.59;;;14.02;71.78
61870;BME280;47810;42.264;23.826;2022-09-30T01:01:12;93575.88;;;14.14;71.15
61870;BME280;47810;42.264;23.826;2022-09-30T01:03:45;93579.84;;;14.20;71.59
61870;BME280;47810;42.264;23.826;2022-09-30T01:06:12;93576.53;;;14.28;71.63
61870;BME280;47810;42.264;23.826;2022-09-30T01:08:38;93575.09;;;14.24;71.23
61870;BME280;47810;42.264;23.826;2022-09-30T01:11:05;93584.22;;;14.31;71.38
61870;BME280;47810;42.264;23.826;2022-09-30T01:13:32;93583.47;;;14.19;71.34
61870;BME280;47810;42.264;23.826;2022-09-30T01:16:10;93586.50;;;14.14;71.41
61870;BME280;47810;42.264;23.826;2022-09-30T01:44:19;93576.47;;;13.86;73.83
61870;BME280;47810;42.264;23.826;2022-09-30T01:46:53;93582.28;;;13.80;74.42
61870;BME280;47810;42.264;23.826;2022-09-30T01:49:28;93585.44;;;13.73;73.12
61870;BME280;47810;42.264;23.826;2022-09-30T01:52:00;93582.72;;;13.96;73.44
61870;BME280;47810;42.264;23.826;2022-09-30T01:54:52;93579.28;;;14.05;73.19
61870;BME280;47810;42.264;23.826;2022-09-30T01:57:27;93583.38;;;13.77;73.78
61870;BME280;47810;42.264;23.826;2022-09-30T02:00:03;93591.16;;;13.69;74.06
61870;BME280;47810;42.264;23.826;2022-09-30T02:02:35;93584.19;;;13.89;73.04
61870;BME280;47810;42.264;23.826;2022-09-30T02:05:32;93582.59;;;13.97;72.16
61870;BME280;47810;42.264;23.826;2022-09-30T02:08:27;93582.44;;;13.99;71.70
61870;BME280;47810;42.264;23.826;2022-09-30T02:10:58;93582.28;;;13.80;72.26
61870;BME280;47810;42.264;23.826;2022-09-30T02:13:50;93583.75;;;13.84;72.53
61870;BME280;47810;42.264;23.826;2022-09-30T02:16:23;93587.69;;;13.89;72.71
61870;BME280;47810;42.264;23.826;2022-09-30T02:19:09;93579.63;;;13.80;72.56
61870;BME280;47810;42.264;23.826;2022-09-30T02:21:39;93585.06;;;13.46;73.73
61870;BME280;47810;42.264;23.826;2022-09-30T02:24:11;93586.16;;;13.43;74.13
61870;BME280;47810;42.264;23.826;2022-09-30T02:26:41;93580.38;;;13.70;73.46
61870;BME280;47810;42.264;23.826;2022-09-30T02:29:19;93593.16;;;13.77;73.10
61870;BME280;47810;42.264;23.826;2022-09-30T02:31:50;93597.28;;;13.69;72.26
61870;BME280;47810;42.264;23.826;2022-09-30T02:37:09;93600.19;;;13.66;72.18
61870;BME280;47810;42.264;23.826;2022-09-30T02:42:29;93606.34;;;13.67;73.06
61870;BME280;47810;42.264;23.826;2022-09-30T02:45:04;93606.97;;;13.59;73.22
61870;BME280;47810;42.264;23.826;2022-09-30T02:50:31;93611.44;;;13.59;73.99
61870;BME280;47810;42.264;23.826;2022-09-30T02:55:37;93626.75;;;13.55;74.71
61870;BME280;47810;42.264;23.826;2022-09-30T03:00:33;93617.81;;;13.56;74.25
61870;BME280;47810;42.264;23.826;2022-09-30T03:03:04;93611.28;;;13.71;73.41
61870;BME280;47810;42.264;23.826;2022-09-30T03:05:31;93609.72;;;13.58;72.80
61870;BME280;47810;42.264;23.826;2022-09-30T03:07:58;93594.44;;;13.50;73.42
61870;BME280;47810;42.264;23.826;2022-09-30T03:10:25;93607.25;;;13.34;73.94
61870;BME280;47810;42.264;23.826;2022-09-30T03:13:28;93620.28;;;13.25;74.19
61870;BME280;47810;42.264;23.826;2022-09-30T03:16:15;93624.72;;;13.25;73.87
61870;BME280;47810;42.264;23.826;2022-09-30T03:30:06;93632.34;;;13.30;73.90
61870;BME280;47810;42.264;23.826;2022-09-30T03:35:45;93623.53;;;13.40;73.45
61870;BME280;47810;42.264;23.826;2022-09-30T03:41:10;93613.50;;;12.99;75.08
61870;BME280;47810;42.264;23.826;2022-09-30T03:48:40;93601.72;;;12.92;75.22
61870;BME280;47810;42.264;23.826;2022-09-30T03:51:07;93606.50;;;13.09;74.27
61870;BME280;47810;42.264;23.826;2022-09-30T03:53:40;93599.78;;;13.05;74.27
61870;BME280;47810;42.264;23.826;2022-09-30T03:56:06;93593.03;;;13.12;73.39
61870;BME280;47810;42.264;23.826;2022-09-30T03:58:32;93592.78;;;13.15;72.46
61870;BME280;47810;42.264;23.826;2022-09-30T04:01:01;93601.72;;;13.14;72.44
61870;BME280;47810;42.264;23.826;2022-09-30T04:03:27;93597.38;;;13.24;71.96
61870;BME280;47810;42.264;23.826;2022-09-30T04:05:53;93604.72;;;13.32;71.09
61870;BME280;47810;42.264;23.826;2022-09-30T04:08:18;93620.03;;;13.28;71.43
61870;BME280;47810;42.264;23.826;2022-09-30T04:10:44;93617.13;;;13.43;71.29
61870;BME280;47810;42.264;23.826;2022-09-30T04:13:10;93611.59;;;13.46;71.30
61870;BME280;47810;42.264;23.826;2022-09-30T04:15:37;93622.19;;;13.35;70.89
61870;BME280;47810;42.264;23.826;2022-09-30T04:18:04;93628.47;;;13.34;71.11
61870;BME280;47810;42.264;23.826;2022-09-30T04:20:31;93630.88;;;13.25;72.07
61870;BME280;47810;42.264;23.826;2022-09-30T04:22:57;93639.06;;;13.11;73.93
61870;BME280;47810;42.264;23.826;2022-09-30T04:25:24;93642.91;;;13.07;74.67
61870;BME280;47810;42.264;23.826;2022-09-30T04:27:50;93641.47;;;13.14;74.91
61870;BME280;47810;42.264;23.826;2022-09-30T04:30:15;93664.38;;;13.04;76.29
61870;BME280;47810;42.264;23.826;2022-09-30T04:32:42;93665.53;;;13.00;76.60
61870;BME280;47810;42.264;23.826;2022-09-30T04:35:13;93669.91;;;13.01;76.49
61870;BME280;47810;42.264;23.826;2022-09-30T04:37:43;93672.06;;;13.18;76.13
61870;BME280;47810;42.264;23.826;2022-09-30T04:40:11;93669.41;;;13.18;75.75
61870;BME280;47810;42.264;23.826;2022-09-30T04:42:38;93682.31;;;13.00;76.83
61870;BME280;47810;42.264;23.826;2022-09-30T04:45:03;93678.56;;;13.03;76.76
61870;BME280;47810;42.264;23.826;2022-09-30T04:47:29;93664.03;;;13.31;74.58
61870;BME280;47810;42.264;23.826;2022-09-30T04:49:55;93657.63;;;13.34;74.34
61870;BME280;47810;42.264;23.826;2022-09-30T04:52:22;93659.78;;;13.17;74.54
61870;BME280;47810;42.264;23.826;2022-09-30T04:54:48;93665.94;;;13.18;74.75
61870;BME280;47810;42.264;23.826;2022-09-30T04:57:13;93669.66;;;13.04;74.14
61870;BME280;47810;42.264;23.826;2022-09-30T04:59:39;93664.59;;;13.01;73.96
61870;BME280;47810;42.264;23.826;2022-09-30T05:02:05;93673.25;;;13.03;74.39
61870;BME280;47810;42.264;23.826;2022-09-30T05:04:31;93684.22;;;12.98;75.10
61870;BME280;47810;42.264;23.826;2022-09-30T05:06:58;93697.38;;;13.11;74.65
61870;BME280;47810;42.264;23.826;2022-09-30T05:09:26;93706.94;;;13.25;74.33
61870;BME280;47810;42.264;23.826;2022-09-30T05:11:51;93710.06;;;13.41;74.72
61870;BME280;47810;42.264;23.826;2022-09-30T05:14:17;93707.53;;;13.40;76.33
61870;BME280;47810;42.264;23.826;2022-09-30T05:16:43;93717.63;;;13.23;75.48
61870;BME280;47810;42.264;23.826;2022-09-30T05:19:09;93724.16;;;13.19;76.14
61870;BME280;47810;42.264;23.826;2022-09-30T05:21:34;93719.09;;;13.16;76.48
61870;BME280;47810;42.264;23.826;2022-09-30T05:24:01;93713.56;;;13.31;76.86
61870;BME280;47810;42.264;23.826;2022-09-30T05:26:27;93704.41;;;13.35;76.62
61870;BME280;47810;42.264;23.826;2022-09-30T05:28:53;93718.63;;;13.34;76.65
61870;BME280;47810;42.264;23.826;2022-09-30T05:31:19;93728.41;;;13.33;76.91
61870;BME280;47810;42.264;23.826;2022-09-30T05:33:47;93722.50;;;13.30;76.29
61870;BME280;47810;42.264;23.826;2022-09-30T05:36:14;93727.56;;;13.33;76.45
61870;BME280;47810;42.264;23.826;2022-09-30T05:38:40;93721.25;;;13.45;75.84
61870;BME280;47810;42.264;23.826;2022-09-30T05:41:11;93713.56;;;13.53;75.88
61870;BME280;47810;42.264;23.826;2022-09-30T05:43:41;93719.34;;;13.69;76.27
61870;BME280;47810;42.264;23.826;2022-09-30T05:46:09;93732.75;;;13.68;76.27
61870;BME280;47810;42.264;23.826;2022-09-30T05:48:35;93741.63;;;13.67;76.12
61870;BME280;47810;42.264;23.826;2022-09-30T05:51:02;93729.22;;;13.67;76.52
61870;BME280;47810;42.264;23.826;2022-09-30T05:53:28;93723.91;;;13.79;76.43
61870;BME280;47810;42.264;23.826;2022-09-30T05:55:55;93729.66;;;13.95;75.66
61870;BME280;47810;42.264;23.826;2022-09-30T05:58:21;93729.66;;;13.95;76.10
61870;BME280;47810;42.264;23.826;2022-09-30T06:00:48;93720.72;;;13.96;76.06
61870;BME280;47810;42.264;23.826;2022-09-30T06:03:14;93732.81;;;14.00;76.04
61870;BME280;47810;42.264;23.826;2022-09-30T06:05:40;93722.28;;;14.10;75.92
61870;BME280;47810;42.264;23.826;2022-09-30T06:08:06;93723.38;;;14.07;75.15
61870;BME280;47810;42.264;23.826;2022-09-30T06:10:33;93743.63;;;14.19;74.87
61870;BME280;47810;42.264;23.826;2022-09-30T06:13:01;93744.50;;;14.41;75.22
61870;BME280;47810;42.264;23.826;2022-09-30T06:15:27;93759.94;;;14.58;75.59
61870;BME280;47810;42.264;23.826;2022-09-30T06:17:53;93758.00;;;14.60;75.73
61870;BME280;47810;42.264;23.826;2022-09-30T06:20:19;93757.72;;;14.75;76.25
61870;BME280;47810;42.264;23.826;2022-09-30T06:22:45;93761.09;;;14.77;75.63
61870;BME280;47810;42.264;23.826;2022-09-30T06:25:11;93756.22;;;14.82;75.85
61870;BME280;47810;42.264;23.826;2022-09-30T06:27:37;93765.94;;;14.93;75.88
61870;BME280;47810;42.264;23.826;2022-09-30T06:30:04;93759.41;;;14.97;76.91
61870;BME280;47810;42.264;23.826;2022-09-30T06:32:30;93761.69;;;15.01;76.24
61870;BME280;47810;42.264;23.826;2022-09-30T06:34:56;93764.03;;;15.16;74.97
61870;BME280;47810;42.264;23.826;2022-09-30T06:37:22;93771.59;;;15.20;74.74
61870;BME280;47810;42.264;23.826;2022-09-30T06:39:48;93774.41;;;15.19;73.49
61870;BME280;47810;42.264;23.826;2022-09-30T06:42:15;93765.41;;;15.61;69.62
61870;BME280;47810;42.264;23.826;2022-09-30T06:44:42;93763.44;;;15.84;67.94
61870;BME280;47810;42.264;23.826;2022-09-30T06:47:07;93768.78;;;15.94;67.08
61870;BME280;47810;42.264;23.826;2022-09-30T06:49:33;93766.16;;;16.04;66.88
61870;BME280;47810;42.264;23.826;2022-09-30T06:51:59;93772.25;;;16.16;65.94
61870;BME280;47810;42.264;23.826;2022-09-30T06:54:26;93769.72;;;16.24;66.12
61870;BME280;47810;42.264;23.826;2022-09-30T06:56:53;93750.97;;;16.35;67.42
61870;BME280;47810;42.264;23.826;2022-09-30T06:59:22;93752.53;;;16.47;69.89
61870;BME280;47810;42.264;23.826;2022-09-30T07:01:49;93763.94;;;16.88;72.45
61870;BME280;47810;42.264;23.826;2022-09-30T07:04:14;93762.81;;;16.81;72.26
61870;BME280;47810;42.264;23.826;2022-09-30T07:06:41;93769.88;;;16.92;72.84
61870;BME280;47810;42.264;23.826;2022-09-30T07:09:07;93772.81;;;16.98;72.21
61870;BME280;47810;42.264;23.826;2022-09-30T07:11:33;93763.09;;;17.07;70.97
61870;BME280;47810;42.264;23.826;2022-09-30T07:13:59;93774.91;;;17.24;70.64
61870;BME280;47810;42.264;23.826;2022-09-30T07:16:25;93781.72;;;17.36;71.43
61870;BME280;47810;42.264;23.826;2022-09-30T07:18:50;93795.16;;;17.83;70.67
61870;BME280;47810;42.264;23.826;2022-09-30T07:21:17;93797.53;;;17.86;69.52
61870;BME280;47810;42.264;23.826;2022-09-30T07:23:44;93801.88;;;17.87;68.84
61870;BME280;47810;42.264;23.826;2022-09-30T07:26:17;93801.28;;;18.03;68.04
61870;BME280;47810;42.264;23.826;2022-09-30T07:28:43;93815.31;;;18.15;67.35
61870;BME280;47810;42.264;23.826;2022-09-30T07:31:17;93815.06;;;18.36;66.95
61870;BME280;47810;42.264;23.826;2022-09-30T07:33:44;93825.06;;;18.61;65.25
61870;BME280;47810;42.264;23.826;2022-09-30T07:36:11;93821.09;;;18.75;63.13
61870;BME280;47810;42.264;23.826;2022-09-30T07:38:40;93820.34;;;18.46;63.80
61870;BME280;47810;42.264;23.826;2022-09-30T07:41:09;93820.78;;;18.78;63.37
61870;BME280;47810;42.264;23.826;2022-09-30T07:43:36;93821.41;;;19.26;61.88
61870;BME280;47810;42.264;23.826;2022-09-30T07:46:17;93827.22;;;19.39;60.51
61870;BME280;47810;42.264;23.826;2022-09-30T07:48:46;93822.94;;;19.11;59.12
61870;BME280;47810;42.264;23.826;2022-09-30T07:51:30;93825.44;;;19.48;59.33
61870;BME280;47810;42.264;23.826;2022-09-30T07:54:00;93832.88;;;19.98;57.52
61870;BME280;47810;42.264;23.826;2022-09-30T07:56:26;93829.06;;;20.35;54.96
61870;BME280;47810;42.264;23.826;2022-09-30T07:58:57;93819.75;;;20.47;53.84
61870;BME280;47810;42.264;23.826;2022-09-30T08:01:26;93828.91;;;20.70;53.17
61870;BME280;47810;42.264;23.826;2022-09-30T08:03:54;93824.03;;;21.25;51.93
61870;BME280;47810;42.264;23.826;2022-09-30T08:06:20;93830.81;;;21.70;52.59
61870;BME280;47810;42.264;23.826;2022-09-30T08:08:49;93827.44;;;22.17;50.93
61870;BME280;47810;42.264;23.826;2022-09-30T08:11:16;93825.97;;;22.62;50.17
61870;BME280;47810;42.264;23.826;2022-09-30T08:13:42;93824.78;;;23.04;48.78
61870;BME280;47810;42.264;23.826;2022-09-30T08:16:08;93827.34;;;23.28;48.37
61870;BME280;47810;42.264;23.826;2022-09-30T08:18:34;93829.97;;;23.36;46.32
61870;BME280;47810;42.264;23.826;2022-09-30T08:21:05;93832.63;;;23.44;46.53
61870;BME280;47810;42.264;23.826;2022-09-30T08:23:31;93832.41;;;23.77;46.72
61870;BME280;47810;42.264;23.826;2022-09-30T08:26:05;93839.06;;;23.89;45.06
61870;BME280;47810;42.264;23.826;2022-09-30T08:28:32;93838.81;;;24.14;45.57
61870;BME280;47810;42.264;23.826;2022-09-30T08:31:11;93837.94;;;24.36;45.00
61870;BME280;47810;42.264;23.826;2022-09-30T08:33:37;93847.28;;;24.49;43.52
61870;BME280;47810;42.264;23.826;2022-09-30T08:36:21;93847.28;;;24.49;44.82
61870;BME280;47810;42.264;23.826;2022-09-30T08:38:47;93846.66;;;24.47;44.87
61870;BME280;47810;42.264;23.826;2022-09-30T08:51:48;93859.19;;;25.28;41.37
61870;BME280;47810;42.264;23.826;2022-09-30T08:54:20;93848.28;;;25.58;42.08
61870;BME280;47810;42.264;23.826;2022-09-30T08:56:47;93854.41;;;25.82;40.99
61870;BME280;47810;42.264;23.826;2022-09-30T08:59:36;93854.53;;;25.95;40.62
61870;BME280;47810;42.264;23.826;2022-09-30T09:04:49;93860.97;;;26.65;39.51
61870;BME280;47810;42.264;23.826;2022-09-30T09:10:12;93867.88;;;27.09;38.23
61870;BME280;47810;42.264;23.826;2022-09-30T09:23:41;93857.34;;;26.30;40.14
61870;BME280;47810;42.264;23.826;2022-09-30T09:26:11;93857.34;;;26.30;40.42
61870;BME280;47810;42.264;23.826;2022-09-30T09:31:16;93861.22;;;27.11;37.64
61870;BME280;47810;42.264;23.826;2022-09-30T09:33:43;93861.44;;;27.58;36.62
61870;BME280;47810;42.264;23.826;2022-09-30T09:44:50;93867.22;;;28.69;34.68
61870;BME280;47810;42.264;23.826;2022-09-30T09:47:18;93865.34;;;28.17;34.90
61870;BME280;47810;42.264;23.826;2022-09-30T09:50:05;93864.94;;;28.53;36.93
61870;BME280;47810;42.264;23.826;2022-09-30T09:53:01;93858.84;;;28.84;33.79
61870;BME280;47810;42.264;23.826;2022-09-30T09:55:35;93863.22;;;28.98;33.24
61870;BME280;47810;42.264;23.826;2022-09-30T09:58:09;93863.84;;;29.14;33.39
61870;BME280;47810;42.264;23.826;2022-09-30T10:00:35;93865.75;;;29.58;33.16
61870;BME280;47810;42.264;23.826;2022-09-30T10:03:24;93866.31;;;29.80;30.76
61870;BME280;47810;42.264;23.826;2022-09-30T10:06:17;93858.06;;;29.93;31.73
61870;BME280;47810;42.264;23.826;2022-09-30T10:08:54;93852.94;;;29.72;30.37
61870;BME280;47810;42.264;23.826;2022-09-30T10:11:23;93857.16;;;29.68;29.88
61870;BME280;47810;42.264;23.826;2022-09-30T10:13:51;93846.31;;;29.55;30.73
61870;BME280;47810;42.264;23.826;2022-09-30T10:18:57;93847.81;;;29.96;31.92
61870;BME280;47810;42.264;23.826;2022-09-30T10:21:27;93844.38;;;30.07;31.45
61870;BME280;47810;42.264;23.826;2022-09-30T10:23:53;93842.41;;;30.46;30.61
61870;BME280;47810;42.264;23.826;2022-09-30T10:26:21;93845.53;;;30.74;29.21
61870;BME280;47810;42.264;23.826;2022-09-30T10:28:51;93837.47;;;30.86;29.56
61870;BME280;47810;42.264;23.826;2022-09-30T10:36:49;93834.81;;;30.98;28.61
61870;BME280;47810;42.264;23.826;2022-09-30T10:39:26;93826.34;;;30.88;29.80
61870;BME280;47810;42.264;23.826;2022-09-30T10:44:44;93819.53;;;30.28;29.52
61870;BME280;47810;42.264;23.826;2022-09-30T10:47:18;93816.38;;;30.50;30.42
61870;BME280;47810;42.264;23.826;2022-09-30T10:49:50;93823.47;;;30.32;29.68
61870;BME280;47810;42.264;23.826;2022-09-30T10:52:27;93815.66;;;29.79;29.68
61870;BME280;47810;42.264;23.826;2022-09-30T10:54:59;93815.41;;;30.19;29.63
61870;BME280;47810;42.264;23.826;2022-09-30T10:57:37;93814.16;;;29.83;30.29
61870;BME280;47810;42.264;23.826;2022-09-30T11:00:13;93812.47;;;29.37;30.32
61870;BME280;47810;42.264;23.826;2022-09-30T11:02:54;93815.31;;;29.56;32.20
61870;BME280;47810;42.264;23.826;2022-09-30T11:05:27;93821.69;;;30.20;31.78
61870;BME280;47810;42.264;23.826;2022-09-30T11:19:18;93829.78;;;28.91;31.36
61870;BME280;47810;42.264;23.826;2022-09-30T11:27:10;93833.63;;;29.35;32.23
61870;BME280;47810;42.264;23.826;2022-09-30T11:29:47;93823.09;;;29.90;30.71
61870;BME280;47810;42.264;23.826;2022-09-30T11:35:40;93822.84;;;30.30;29.60
61870;BME280;47810;42.264;23.826;2022-09-30T11:38:29;93819.41;;;30.42;28.85
61870;BME280;47810;42.264;23.826;2022-09-30T11:59:17;93815.22;;;31.74;27.19
61870;BME280;47810;42.264;23.826;2022-09-30T12:01:47;93819.50;;;31.89;27.20
61870;BME280;47810;42.264;23.826;2022-09-30T12:09:37;93816.69;;;30.42;27.17
61870;BME280;47810;42.264;23.826;2022-09-30T12:12:07;93818.41;;;30.36;27.60
61870;BME280;47810;42.264;23.826;2022-09-30T12:14:41;93825.75;;;30.35;27.86
61870;BME280;47810;42.264;23.826;2022-09-30T12:17:36;93820.03;;;29.35;27.75
61870;BME280;47810;42.264;23.826;2022-09-30T12:23:04;93824.97;;;29.52;29.41
61870;BME280;47810;42.264;23.826;2022-09-30T12:26:02;93828.22;;;29.80;30.48
61870;BME280;47810;42.264;23.826;2022-09-30T12:48:38;93823.78;;;31.11;27.66
61870;BME280;47810;42.264;23.826;2022-09-30T12:51:05;93820.91;;;31.06;27.95
61870;BME280;47810;42.264;23.826;2022-09-30T12:53:35;93825.81;;;31.16;26.97
61870;BME280;47810;42.264;23.826;2022-09-30T12:56:09;93833.91;;;31.04;27.22
61870;BME280;47810;42.264;23.826;2022-09-30T12:58:57;93838.25;;;30.68;27.26
61870;BME280;47810;42.264;23.826;2022-09-30T13:01:26;93841.19;;;30.10;28.25
61870;BME280;47810;42.264;23.826;2022-09-30T13:06:23;93839.47;;;30.22;30.09
61870;BME280;47810;42.264;23.826;2022-09-30T13:11:36;93846.03;;;30.39;28.92
61870;BME280;47810;42.264;23.826;2022-09-30T13:19:33;93831.22;;;29.59;30.61
61870;BME280;47810;42.264;23.826;2022-09-30T13:28:24;93857.00;;;29.94;28.66
61870;BME280;47810;42.264;23.826;2022-09-30T13:30:39;93855.34;;;29.93;30.93
61870;BME280;47810;42.264;23.826;2022-09-30T13:33:29;93857.41;;;29.98;29.54
61870;BME280;47810;42.264;23.826;2022-09-30T13:36:05;93861.47;;;30.14;29.98
61870;BME280;47810;42.264;23.826;2022-09-30T13:38:42;93859.38;;;30.23;28.35
61870;BME280;47810;42.264;23.826;2022-09-30T13:41:22;93859.13;;;29.92;28.77
61870;BME280;47810;42.264;23.826;2022-09-30T13:44:11;93861.38;;;29.64;30.28
61870;BME280;47810;42.264;23.826;2022-09-30T13:47:22;93867.78;;;29.31;30.17
61870;BME280;47810;42.264;23.826;2022-09-30T13:50:02;93861.16;;;29.00;29.75
61870;BME280;47810;42.264;23.826;2022-09-30T13:52:33;93860.69;;;29.17;30.78
61870;BME280;47810;42.264;23.826;2022-09-30T13:55:28;93862.59;;;29.10;28.29
61870;BME280;47810;42.264;23.826;2022-09-30T14:00:39;93866.16;;;28.04;31.94
61870;BME280;47810;42.264;23.826;2022-09-30T14:03:46;93859.81;;;27.77;30.95
61870;BME280;47810;42.264;23.826;2022-09-30T14:17:51;93871.53;;;27.23;33.04
61870;BME280;47810;42.264;23.826;2022-09-30T14:23:15;93880.00;;;26.50;33.27
61870;BME280;47810;42.264;23.826;2022-09-30T14:25:53;93883.88;;;26.97;33.74
61870;BME280;47810;42.264;23.826;2022-09-30T14:28:29;93889.03;;;26.92;34.72
61870;BME280;47810;42.264;23.826;2022-09-30T14:31:01;93900.25;;;26.33;34.27
61870;BME280;47810;42.264;23.826;2022-09-30T14:33:33;93902.31;;;26.52;36.25
61870;BME280;47810;42.264;23.826;2022-09-30T14:36:02;93902.66;;;26.70;36.22
61870;BME280;47810;42.264;23.826;2022-09-30T14:38:31;93899.75;;;26.72;34.29
61870;BME280;47810;42.264;23.826;2022-09-30T14:41:02;93905.47;;;26.84;35.09
61870;BME280;47810;42.264;23.826;2022-09-30T14:43:39;93913.47;;;26.70;36.34
61870;BME280;47810;42.264;23.826;2022-09-30T14:48:53;93920.00;;;25.54;38.42
61870;BME280;47810;42.264;23.826;2022-09-30T14:51:20;93932.41;;;24.74;40.23
61870;BME280;47810;42.264;23.826;2022-09-30T14:53:56;93929.81;;;24.81;40.32
61870;BME280;47810;42.264;23.826;2022-09-30T14:58:57;93928.84;;;23.67;42.89
61870;BME280;47810;42.264;23.826;2022-09-30T15:01:32;93945.63;;;23.15;44.49
61870;BME280;47810;42.264;23.826;2022-09-30T15:04:06;93940.59;;;23.12;44.53
61870;BME280;47810;42.264;23.826;2022-09-30T15:06:36;93943.69;;;22.68;45.10
61870;BME280;47810;42.264;23.826;2022-09-30T15:09:05;93952.13;;;22.40;45.45
61870;BME280;47810;42.264;23.826;2022-09-30T15:11:32;93946.75;;;22.40;45.18
61870;BME280;47810;42.264;23.826;2022-09-30T15:14:23;93950.13;;;22.34;45.65
61870;BME280;47810;42.264;23.826;2022-09-30T15:16:52;93948.47;;;22.41;44.97
61870;BME280;47810;42.264;23.826;2022-09-30T15:19:25;93947.44;;;22.18;45.35
61870;BME280;47810;42.264;23.826;2022-09-30T15:21:54;93948.09;;;22.03;45.48
61870;BME280;47810;42.264;23.826;2022-09-30T15:24:23;93950.63;;;22.13;45.73
61870;BME280;47810;42.264;23.826;2022-09-30T15:26:51;93951.47;;;22.14;45.95
61870;BME280;47810;42.264;23.826;2022-09-30T15:29:17;93949.59;;;21.90;45.92
61870;BME280;47810;42.264;23.826;2022-09-30T15:34:28;93969.91;;;21.68;46.58
61870;BME280;47810;42.264;23.826;2022-09-30T15:36:57;93975.56;;;21.56;47.42
61870;BME280;47810;42.264;23.826;2022-09-30T15:39:29;93974.69;;;21.39;47.61
61870;BME280;47810;42.264;23.826;2022-09-30T15:42:29;93980.81;;;21.24;47.91
61870;BME280;47810;42.264;23.826;2022-09-30T15:44:56;93996.00;;;21.07;48.16
61870;BME280;47810;42.264;23.826;2022-09-30T15:47:25;93994.84;;;21.09;47.72
61870;BME280;47810;42.264;23.826;2022-09-30T15:49:52;94000.53;;;21.06;48.38
61870;BME280;47810;42.264;23.826;2022-09-30T15:52:38;94003.28;;;21.23;48.25
61870;BME280;47810;42.264;23.826;2022-09-30T16:01:23;94010.53;;;20.96;48.76
61870;BME280;47810;42.264;23.826;2022-09-30T16:03:57;94014.75;;;20.99;49.01
61870;BME280;47810;42.264;23.826;2022-09-30T16:06:30;94013.13;;;20.80;49.46
61870;BME280;47810;42.264;23.826;2022-09-30T16:09:02;94029.69;;;20.75;48.80
61870;BME280;47810;42.264;23.826;2022-09-30T16:11:36;94019.06;;;20.65;48.94
61870;BME280;47810;42.264;23.826;2022-09-30T16:14:08;94032.72;;;20.54;49.14
61870;BME280;47810;42.264;23.826;2022-09-30T16:16:34;94030.34;;;20.51;49.89
61870;BME280;47810;42.264;23.826;2022-09-30T16:19:02;94030.06;;;20.18;49.83
61870;BME280;47810;42.264;23.826;2022-09-30T16:21:37;94030.66;;;20.12;49.95
61870;BME280;47810;42.264;23.826;2022-09-30T16:26:51;94031.38;;;20.14;50.27
61870;BME280;47810;42.264;23.826;2022-09-30T16:29:17;94022.63;;;20.12;50.13
61870;BME280;47810;42.264;23.826;2022-09-30T16:31:45;94016.38;;;20.04;50.28
61870;BME280;47810;42.264;23.826;2022-09-30T16:34:20;94021.09;;;19.92;50.31
61870;BME280;47810;42.264;23.826;2022-09-30T16:36:47;94024.50;;;19.94;50.73
61870;BME280;47810;42.264;23.826;2022-09-30T16:39:16;94016.50;;;19.66;51.47
61870;BME280;47810;42.264;23.826;2022-09-30T16:41:42;94036.50;;;19.62;52.39
61870;BME280;47810;42.264;23.826;2022-09-30T16:44:09;94035.50;;;19.63;51.26
61870;BME280;47810;42.264;23.826;2022-09-30T16:46:35;94054.56;;;19.60;51.06
61870;BME280;47810;42.264;23.826;2022-09-30T16:49:11;94052.88;;;19.59;50.74
61870;BME280;47810;42.264;23.826;2022-09-30T16:51:38;94064.13;;;19.72;50.36
61870;BME280;47810;42.264;23.826;2022-09-30T16:54:04;94066.56;;;19.66;50.69
61870;BME280;47810;42.264;23.826;2022-09-30T16:56:29;94072.31;;;19.61;50.25
61870;BME280;47810;42.264;23.826;2022-09-30T16:58:55;94085.91;;;19.50;51.13